createdAt,value
2018-06-29T00:01:50.254Z,57.67
2018-06-29T00:04:19.057Z,57.84
2018-06-29T00:06:47.950Z,57.58
2018-06-29T00:09:16.735Z,57.20
2018-06-29T00:11:45.546Z,56.80
2018-06-29T00:14:14.374Z,56.32
2018-06-29T00:16:43.122Z,56.43
2018-06-29T00:19:11.999Z,56.10
2018-06-29T00:21:40.758Z,56.77
2018-06-29T00:24:09.651Z,57.03
2018-06-29T00:26:38.565Z,57.12
2018-06-29T00:29:07.411Z,56.22
2018-06-29T00:31:36.208Z,55.62
2018-06-29T00:34:05.016Z,56.16
2018-06-29T00:36:33.746Z,55.92
2018-06-29T00:39:02.780Z,55.62
2018-06-29T00:41:31.499Z,55.52
2018-06-29T00:44:00.275Z,55.41
2018-06-29T00:46:29.341Z,55.48
2018-06-29T00:48:58.821Z,55.45
2018-06-29T00:51:27.980Z,55.60
2018-06-29T00:53:57.164Z,55.36
2018-06-29T00:56:25.965Z,55.54
2018-06-29T00:58:54.742Z,55.96
2018-06-29T01:01:23.634Z,56.65
2018-06-29T01:03:52.367Z,56.43
2018-06-29T01:06:21.213Z,57.91
2018-06-29T01:08:49.936Z,58.71
2018-06-29T01:11:18.691Z,57.85
2018-06-29T01:13:47.405Z,57.38
2018-06-29T01:16:16.127Z,56.83
2018-06-29T01:18:44.849Z,56.76
2018-06-29T01:21:13.677Z,56.35
2018-06-29T01:23:42.523Z,56.78
2018-06-29T01:26:12.544Z,56.35
2018-06-29T01:28:41.327Z,55.91
2018-06-29T01:31:10.284Z,55.75
2018-06-29T01:33:39.152Z,56.13
2018-06-29T01:36:08.044Z,56.40
2018-06-29T01:38:36.827Z,55.47
2018-06-29T01:41:05.537Z,56.38
2018-06-29T01:43:34.383Z,56.26
2018-06-29T01:46:03.261Z,55.79
2018-06-29T01:48:32.068Z,56.87
2018-06-29T01:51:00.963Z,56.44
2018-06-29T01:53:29.707Z,56.20
2018-06-29T01:55:58.567Z,56.96
2018-06-29T01:58:27.470Z,56.31
2018-06-29T02:00:56.259Z,55.95
2018-06-29T02:03:25.129Z,56.97
2018-06-29T02:05:53.885Z,56.54
2018-06-29T02:08:22.629Z,56.23
2018-06-29T02:10:51.363Z,55.44
2018-06-29T02:13:20.249Z,55.68
2018-06-29T02:15:49.099Z,55.00
2018-06-29T02:18:17.838Z,55.56
2018-06-29T02:20:46.600Z,55.84
2018-06-29T02:23:15.486Z,55.88
2018-06-29T02:25:44.558Z,55.62
2018-06-29T02:28:13.296Z,55.69
2018-06-29T02:30:42.042Z,56.29
2018-06-29T02:33:10.918Z,56.70
2018-06-29T02:35:39.637Z,56.35
2018-06-29T02:38:08.506Z,55.91
2018-06-29T02:40:37.310Z,56.10
2018-06-29T02:43:06.259Z,56.50
2018-06-29T02:45:34.952Z,56.14
2018-06-29T02:48:03.740Z,56.54
2018-06-29T02:50:32.429Z,55.73
2018-06-29T02:53:01.204Z,55.81
2018-06-29T02:55:29.884Z,55.60
2018-06-29T02:57:58.614Z,56.61
2018-06-29T03:00:27.538Z,56.05
2018-06-29T03:02:56.310Z,56.37
2018-06-29T03:05:25.212Z,55.89
2018-06-29T03:07:54.066Z,56.25
2018-06-29T03:10:22.846Z,56.11
2018-06-29T03:12:51.636Z,55.97
2018-06-29T03:15:20.433Z,56.08
2018-06-29T03:17:49.247Z,57.03
2018-06-29T03:20:17.970Z,56.80
2018-06-29T03:22:46.650Z,56.16
2018-06-29T03:25:15.650Z,55.83
2018-06-29T03:27:45.061Z,56.15
2018-06-29T03:30:13.899Z,55.75
2018-06-29T03:32:42.653Z,55.36
2018-06-29T03:35:11.394Z,56.08
2018-06-29T03:37:40.139Z,57.65
2018-06-29T03:40:08.876Z,58.16
2018-06-29T03:42:37.644Z,58.63
2018-06-29T03:45:06.427Z,58.59
2018-06-29T03:47:35.312Z,58.99
2018-06-29T03:50:04.308Z,58.23
2018-06-29T03:52:33.418Z,57.38
2018-06-29T03:55:02.337Z,56.95
2018-06-29T03:57:31.049Z,57.34
2018-06-29T03:59:59.830Z,57.01
2018-06-29T04:02:28.668Z,57.42
2018-06-29T04:04:57.448Z,57.78
2018-06-29T04:07:26.096Z,58.24
2018-06-29T04:09:54.849Z,57.94
2018-06-29T04:12:23.685Z,58.71
2018-06-29T04:14:52.554Z,59.33
2018-06-29T04:17:21.379Z,60.09
2018-06-29T04:19:50.240Z,59.62
2018-06-29T04:22:18.996Z,59.00
2018-06-29T04:24:47.808Z,58.72
2018-06-29T04:27:16.758Z,58.09
2018-06-29T04:29:45.531Z,57.25
2018-06-29T04:32:14.278Z,56.56
2018-06-29T04:34:43.188Z,56.09
2018-06-29T04:37:12.160Z,55.50
2018-06-29T04:39:40.966Z,55.71
2018-06-29T04:42:09.759Z,55.79
2018-06-29T04:44:38.514Z,56.22
2018-06-29T04:47:07.301Z,56.20
2018-06-29T04:49:36.032Z,56.85
2018-06-29T04:52:04.801Z,57.17
2018-06-29T04:54:33.541Z,56.97
2018-06-29T04:57:02.315Z,57.24
2018-06-29T04:59:31.051Z,57.32
2018-06-29T05:01:59.854Z,57.09
2018-06-29T05:04:28.678Z,57.12
2018-06-29T05:06:57.555Z,57.90
2018-06-29T05:09:26.582Z,57.18
2018-06-29T05:11:55.302Z,56.19
2018-06-29T05:14:24.085Z,55.74
2018-06-29T05:16:53.083Z,56.00
2018-06-29T05:19:21.793Z,55.19
2018-06-29T05:21:50.518Z,54.86
2018-06-29T05:24:19.357Z,55.13
2018-06-29T05:26:48.089Z,56.78
2018-06-29T05:29:16.727Z,55.95
2018-06-29T05:31:45.460Z,55.57
2018-06-29T05:34:14.127Z,55.11
2018-06-29T05:36:42.842Z,55.61
2018-06-29T05:39:11.997Z,55.96
2018-06-29T05:41:40.862Z,54.34
2018-06-29T05:44:09.582Z,53.57
2018-06-29T05:46:38.289Z,53.74
2018-06-29T05:49:08.138Z,52.76
2018-06-29T05:51:37.034Z,53.58
2018-06-29T05:54:05.841Z,53.99
2018-06-29T05:56:34.566Z,54.43
2018-06-29T05:59:03.512Z,54.67
2018-06-29T06:01:32.272Z,54.35
2018-06-29T06:04:01.079Z,54.40
2018-06-29T06:06:29.767Z,54.65
2018-06-29T06:08:58.807Z,55.05
2018-06-29T06:11:27.680Z,56.29
2018-06-29T06:13:56.436Z,56.15
2018-06-29T06:16:25.200Z,55.71
2018-06-29T06:19:07.503Z,54.41
2018-06-29T06:21:36.230Z,54.16
2018-06-29T06:24:05.062Z,53.64
2018-06-29T06:26:33.866Z,53.83
2018-06-29T06:29:02.597Z,53.68
2018-06-29T06:31:31.312Z,53.61
2018-06-29T06:34:00.067Z,54.52
2018-06-29T06:36:28.931Z,53.86
2018-06-29T06:38:57.778Z,52.97
2018-06-29T06:41:26.795Z,52.43
2018-06-29T06:43:55.560Z,50.53
2018-06-29T06:46:24.327Z,50.47
2018-06-29T06:48:53.046Z,49.15
2018-06-29T06:51:21.712Z,50.46
2018-06-29T06:53:50.477Z,51.86
2018-06-29T06:56:19.394Z,51.09
2018-06-29T06:58:48.088Z,51.34
2018-06-29T07:01:16.969Z,50.94
2018-06-29T07:03:45.908Z,51.70
2018-06-29T07:06:14.580Z,51.11
2018-06-29T07:08:43.221Z,50.57
2018-06-29T07:11:13.098Z,50.21
2018-06-29T07:13:41.977Z,48.83
2018-06-29T07:16:10.765Z,48.13
2018-06-29T07:18:39.458Z,47.90
2018-06-29T07:21:08.195Z,47.98
2018-06-29T07:23:36.859Z,46.55
2018-06-29T07:26:05.655Z,46.66
2018-06-29T07:28:34.498Z,46.26
2018-06-29T07:31:03.262Z,45.81
2018-06-29T07:33:32.053Z,45.46
2018-06-29T07:36:00.806Z,45.15
2018-06-29T07:38:29.510Z,44.64
2018-06-29T07:40:58.353Z,45.02
2018-06-29T07:43:27.182Z,44.75
2018-06-29T07:45:55.836Z,45.05
2018-06-29T07:48:24.602Z,44.42
2018-06-29T07:50:53.237Z,44.59
2018-06-29T07:53:21.951Z,44.47
2018-06-29T07:55:50.613Z,45.33
2018-06-29T07:58:19.494Z,44.44
2018-06-29T08:00:48.287Z,43.33
2018-06-29T08:03:17.614Z,42.14
2018-06-29T08:05:46.585Z,41.86
2018-06-29T08:08:15.336Z,41.31
2018-06-29T08:10:44.427Z,40.84
2018-06-29T08:13:13.012Z,40.46
2018-06-29T08:15:41.774Z,39.92
2018-06-29T08:18:10.551Z,39.24
2018-06-29T08:20:39.217Z,39.92
2018-06-29T08:23:08.134Z,39.53
2018-06-29T08:25:36.816Z,38.75
2018-06-29T08:28:05.611Z,39.27
2018-06-29T08:30:34.850Z,39.02
2018-06-29T08:33:03.600Z,38.80
2018-06-29T08:35:32.319Z,39.25
2018-06-29T08:38:01.063Z,38.30
2018-06-29T08:40:29.758Z,37.99
2018-06-29T08:42:59.686Z,38.56
2018-06-29T08:45:28.457Z,37.84
2018-06-29T08:47:57.106Z,38.08
2018-06-29T08:50:25.843Z,38.67
2018-06-29T08:52:54.565Z,40.24
2018-06-29T08:55:23.230Z,40.52
2018-06-29T08:57:51.887Z,41.31
2018-06-29T09:00:20.510Z,41.48
2018-06-29T09:02:49.216Z,41.30
2018-06-29T09:05:18.109Z,40.86
2018-06-29T09:07:46.811Z,40.26
2018-06-29T09:10:15.521Z,39.95
2018-06-29T09:12:44.283Z,38.19
2018-06-29T09:15:13.062Z,38.06
2018-06-29T09:17:48.072Z,37.39
2018-06-29T09:20:16.967Z,36.44
2018-06-29T09:22:45.825Z,35.81
2018-06-29T09:25:14.812Z,35.66
2018-06-29T09:27:43.514Z,35.72
2018-06-29T09:30:12.264Z,35.99
2018-06-29T09:32:40.950Z,35.86
2018-06-29T09:35:09.659Z,35.09
2018-06-29T09:37:38.589Z,35.02
2018-06-29T09:40:07.313Z,35.24
2018-06-29T09:42:36.031Z,35.34
2018-06-29T09:45:04.821Z,34.64
2018-06-29T09:47:33.562Z,35.25
2018-06-29T09:50:02.464Z,35.06
2018-06-29T09:52:31.079Z,35.21
2018-06-29T09:54:59.754Z,34.89
2018-06-29T09:57:28.560Z,35.05
2018-06-29T09:59:57.335Z,34.53
2018-06-29T10:02:31.689Z,35.45
2018-06-29T10:04:54.889Z,35.97
2018-06-29T10:07:23.915Z,35.56
2018-06-29T10:09:54.322Z,35.25
2018-06-29T10:12:23.238Z,35.69
2018-06-29T10:14:52.017Z,34.65
2018-06-29T10:17:20.767Z,33.24
2018-06-29T10:19:49.617Z,32.77
2018-06-29T10:22:18.304Z,31.32
2018-06-29T10:24:47.037Z,32.43
2018-06-29T10:27:15.856Z,31.75
2018-06-29T10:29:44.510Z,31.68
2018-06-29T10:32:13.177Z,31.76
2018-06-29T10:34:41.876Z,31.48
2018-06-29T10:37:10.574Z,31.64
2018-06-29T10:39:39.361Z,31.01
2018-06-29T10:42:08.193Z,31.16
2018-06-29T10:44:36.895Z,32.57
2018-06-29T10:47:05.785Z,31.68
2018-06-29T10:49:34.599Z,32.33
2018-06-29T10:52:03.447Z,32.52
2018-06-29T10:54:32.217Z,32.29
2018-06-29T10:57:01.012Z,34.16
2018-06-29T10:59:29.798Z,33.19
2018-06-29T11:01:58.543Z,33.27
2018-06-29T11:04:27.313Z,32.87
2018-06-29T11:06:56.006Z,33.21
2018-06-29T11:09:24.794Z,34.10
2018-06-29T11:11:53.766Z,33.15
2018-06-29T11:14:22.720Z,32.77
2018-06-29T11:16:51.935Z,34.19
2018-06-29T11:23:07.237Z,34.10
2018-06-29T11:25:35.931Z,34.16
2018-06-29T11:28:04.812Z,33.44
2018-06-29T11:30:33.582Z,32.54
2018-06-29T11:33:02.327Z,33.79
2018-06-29T11:35:31.009Z,34.29
2018-06-29T11:37:59.745Z,34.95
2018-06-29T11:40:31.548Z,34.28
2018-06-29T11:43:01.096Z,33.71
2018-06-29T11:45:36.439Z,32.74
2018-06-29T11:48:10.463Z,32.22
2018-06-29T11:50:39.361Z,32.74
2018-06-29T11:53:08.087Z,31.96
2018-06-29T11:55:37.031Z,31.95
2018-06-29T11:58:05.680Z,31.08
2018-06-29T12:00:34.406Z,30.26
2018-06-29T12:03:03.104Z,28.61
2018-06-29T12:05:31.873Z,27.56
2018-06-29T12:08:00.607Z,24.83
2018-06-29T12:10:29.274Z,24.50
2018-06-29T12:12:58.765Z,23.78
2018-06-29T12:15:28.822Z,23.17
2018-06-29T12:17:58.019Z,20.99
2018-06-29T12:20:26.686Z,18.96
2018-06-29T12:22:55.369Z,17.83
2018-06-29T12:25:23.989Z,17.05
2018-06-29T12:27:52.567Z,16.11
2018-06-29T12:30:21.295Z,15.49
2018-06-29T12:32:50.003Z,16.08
2018-06-29T12:35:18.769Z,14.83
2018-06-29T12:37:47.470Z,14.28
2018-06-29T12:40:16.329Z,14.99
2018-06-29T12:45:46.125Z,15.86
2018-06-29T12:48:14.769Z,16.18
2018-06-29T12:50:43.510Z,16.83
2018-06-29T12:53:12.165Z,16.90
2018-06-29T12:55:41.126Z,18.11
2018-06-29T12:58:09.983Z,16.68
2018-06-29T13:00:38.605Z,15.82
2018-06-29T13:03:07.862Z,14.09
2018-06-29T13:05:37.479Z,13.51
2018-06-29T13:08:12.326Z,13.48
2018-06-29T13:19:19.118Z,11.07
2018-06-29T13:21:47.934Z,11.87
2018-06-29T13:24:16.770Z,13.10
2018-06-29T13:26:45.538Z,13.99
2018-06-29T13:29:14.115Z,15.48
2018-06-29T13:31:42.855Z,15.84
2018-06-29T13:34:11.724Z,16.27
2018-06-29T13:36:40.565Z,16.26
2018-06-29T13:39:10.794Z,16.72
2018-06-29T13:41:39.672Z,15.25
2018-06-29T13:44:08.466Z,13.09
2018-06-29T13:46:37.224Z,12.36
2018-06-29T13:49:05.985Z,11.74
2018-06-29T13:51:34.733Z,11.21
2018-06-29T13:54:03.393Z,10.21
2018-06-29T13:56:32.160Z,9.22
2018-06-29T13:59:00.897Z,9.75
2018-06-29T14:01:29.569Z,8.86
2018-06-29T14:03:59.612Z,9.74
2018-06-29T14:06:28.900Z,11.44
2018-06-29T14:08:57.697Z,13.81
2018-06-29T14:11:27.090Z,13.67
2018-06-29T14:13:55.987Z,13.19
2018-06-29T14:16:24.812Z,13.15
2018-06-29T14:18:53.728Z,13.54
2018-06-29T14:21:22.749Z,14.08
2018-06-29T14:23:51.687Z,15.84
2018-06-29T14:26:20.877Z,17.49
2018-06-29T14:28:49.834Z,18.28
2018-06-29T14:31:18.606Z,18.86
2018-06-29T14:33:47.709Z,18.95
2018-06-29T14:36:16.573Z,19.33
2018-06-29T14:38:45.372Z,19.17
2018-06-29T14:41:14.055Z,18.97
2018-06-29T14:43:42.820Z,18.89
2018-06-29T14:46:12.443Z,17.42
2018-06-29T14:48:41.231Z,17.42
2018-06-29T14:51:10.007Z,18.74
2018-06-29T14:53:38.780Z,19.08
2018-06-29T14:56:08.011Z,19.72
2018-06-29T14:58:36.989Z,19.64
2018-06-29T15:01:06.459Z,20.76
2018-06-29T15:03:35.751Z,20.80
2018-06-29T15:06:04.573Z,21.77
2018-06-29T15:08:34.085Z,21.13
2018-06-29T15:11:02.921Z,21.12
2018-06-29T15:13:35.019Z,21.19
2018-06-29T15:16:04.322Z,20.15
2018-06-29T15:18:33.141Z,21.13
2018-06-29T15:21:01.809Z,20.71
2018-06-29T15:23:34.037Z,21.71
2018-06-29T15:26:04.994Z,22.61
2018-06-29T15:28:33.732Z,23.32
2018-06-29T15:31:02.656Z,24.37
2018-06-29T15:33:31.506Z,25.02
2018-06-29T15:36:00.341Z,26.28
2018-06-29T15:38:28.928Z,26.14
2018-06-29T15:40:57.907Z,26.46
2018-06-29T15:43:26.649Z,25.86
2018-06-29T15:45:55.543Z,26.16
2018-06-29T15:48:25.370Z,24.91
2018-06-29T15:50:54.234Z,22.19
2018-06-29T15:53:22.899Z,20.21
2018-06-29T15:55:51.691Z,20.35
2018-06-29T15:58:20.686Z,18.07
2018-06-29T16:00:49.731Z,16.09
2018-06-29T16:03:18.490Z,15.10
2018-06-29T16:05:47.507Z,12.45
2018-06-29T16:08:16.311Z,10.82
2018-06-29T16:10:44.937Z,10.95
2018-06-29T16:13:13.785Z,11.66
2018-06-29T16:15:42.616Z,13.10
2018-06-29T16:18:11.348Z,12.82
2018-06-29T16:20:40.091Z,13.45
2018-06-29T16:23:08.856Z,12.93
2018-06-29T16:25:37.545Z,13.91
2018-06-29T16:28:06.416Z,14.56
2018-06-29T16:30:35.214Z,16.00
2018-06-29T16:33:03.843Z,16.35
2018-06-29T16:35:32.765Z,17.76
2018-06-29T16:38:01.486Z,17.81
2018-06-29T16:40:30.373Z,16.79
2018-06-29T16:42:59.061Z,17.63
2018-06-29T16:45:27.822Z,16.04
2018-06-29T16:47:56.609Z,14.70
2018-06-29T16:50:25.466Z,13.59
2018-06-29T16:52:54.185Z,12.17
2018-06-29T16:55:22.892Z,11.76
2018-06-29T16:57:51.517Z,11.01
2018-06-29T17:00:20.364Z,10.98
2018-06-29T17:02:49.018Z,10.85
2018-06-29T17:05:17.723Z,10.05
2018-06-29T17:07:46.612Z,10.44
2018-06-29T17:10:15.431Z,10.89
2018-06-29T17:12:44.065Z,10.16
2018-06-29T17:15:12.771Z,10.87
2018-06-29T17:17:41.454Z,10.89
2018-06-29T17:20:10.214Z,11.16
2018-06-29T17:22:38.887Z,10.92
2018-06-29T17:25:07.675Z,10.96
2018-06-29T17:27:36.388Z,11.23
2018-06-29T17:30:05.554Z,11.25
2018-06-29T17:32:34.440Z,11.56
2018-06-29T17:35:03.190Z,11.78
2018-06-29T17:37:35.557Z,11.34
2018-06-29T17:40:05.900Z,13.29
2018-06-29T17:42:34.815Z,13.21
2018-06-29T17:45:07.183Z,14.63
2018-06-29T17:47:40.848Z,13.99
2018-06-29T17:50:09.875Z,13.86
2018-06-29T17:52:38.698Z,13.61
2018-06-29T17:58:01.200Z,14.68
2018-06-29T18:00:30.000Z,14.42
2018-06-29T18:02:58.607Z,15.76
2018-06-29T18:05:58.721Z,16.37
2018-06-29T18:08:39.202Z,17.15
2018-06-29T18:11:08.384Z,17.44
2018-06-29T18:13:37.324Z,20.34
2018-06-29T18:16:06.742Z,21.69
2018-06-29T18:18:35.314Z,22.98
2018-06-29T18:21:04.130Z,24.05
2018-06-29T18:23:32.851Z,25.30
2018-06-29T18:26:01.705Z,26.37
2018-06-29T18:28:30.607Z,27.03
2018-06-29T18:30:59.629Z,28.50
2018-06-29T18:33:34.771Z,29.85
2018-06-29T18:36:03.685Z,30.73
2018-06-29T18:38:32.393Z,31.48
2018-06-29T18:41:01.043Z,31.90
2018-06-29T18:43:29.743Z,31.61
2018-06-29T18:45:58.492Z,32.71
2018-06-29T18:48:27.352Z,33.34
2018-06-29T18:50:56.195Z,33.33
2018-06-29T18:53:24.981Z,33.27
2018-06-29T18:55:54.187Z,33.83
2018-06-29T18:58:25.548Z,33.95
2018-06-29T19:00:54.245Z,34.77
2018-06-29T19:03:22.956Z,34.63
2018-06-29T19:05:51.744Z,34.85
2018-06-29T19:08:21.138Z,35.34
2018-06-29T19:10:49.925Z,35.53
2018-06-29T19:13:18.568Z,35.74
2018-06-29T19:15:47.529Z,35.98
2018-06-29T19:18:16.243Z,36.49
2018-06-29T19:20:45.114Z,36.54
2018-06-29T19:23:13.825Z,36.55
2018-06-29T19:25:42.671Z,37.29
2018-06-29T19:28:12.242Z,37.50
2018-06-29T19:30:41.066Z,37.67
2018-06-29T19:33:11.185Z,37.54
2018-06-29T19:35:55.156Z,37.89
2018-06-29T19:38:24.141Z,38.79
2018-06-29T19:40:52.973Z,38.56
2018-06-29T19:43:23.316Z,39.01
2018-06-29T19:45:52.098Z,38.71
2018-06-29T19:48:21.296Z,39.03
2018-06-29T19:50:50.426Z,39.07
2018-06-29T19:53:19.310Z,39.10
2018-06-29T19:55:48.068Z,39.63
2018-06-29T19:58:16.853Z,40.15
2018-06-29T20:00:45.787Z,42.00
2018-06-29T20:03:14.613Z,44.22
2018-06-29T20:05:43.297Z,44.37
2018-06-29T20:08:12.218Z,43.73
2018-06-29T20:10:42.212Z,44.25
2018-06-29T20:13:11.169Z,45.04
2018-06-29T20:15:39.881Z,45.04
2018-06-29T20:18:08.703Z,45.51
2018-06-29T20:20:37.584Z,45.69
2018-06-29T20:23:06.280Z,45.73
2018-06-29T20:25:35.067Z,45.74
2018-06-29T20:28:03.723Z,46.07
2018-06-29T20:30:32.528Z,46.44
2018-06-29T20:33:01.487Z,45.77
2018-06-29T20:35:30.478Z,45.43
2018-06-29T20:37:59.265Z,46.05
2018-06-29T20:40:28.071Z,46.49
2018-06-29T20:42:57.052Z,46.71
2018-06-29T20:45:25.756Z,47.16
2018-06-29T20:47:54.690Z,46.61
2018-06-29T20:50:25.871Z,46.87
2018-06-29T20:52:56.887Z,47.31
2018-06-29T20:55:25.708Z,47.70
2018-06-29T20:57:54.500Z,48.11
2018-06-29T21:00:23.362Z,48.34
2018-06-29T21:02:52.146Z,48.49
2018-06-29T21:05:20.897Z,49.26
2018-06-29T21:07:49.601Z,49.94
2018-06-29T21:10:18.532Z,50.29
2018-06-29T21:12:47.337Z,51.56
2018-06-29T21:15:15.971Z,51.46
2018-06-29T21:17:44.773Z,51.54
2018-06-29T21:20:13.656Z,51.87
2018-06-29T21:22:42.380Z,52.21
2018-06-29T21:25:11.238Z,52.14
2018-06-29T21:27:40.852Z,53.02
2018-06-29T21:30:12.483Z,53.52
2018-06-29T21:32:41.192Z,53.68
2018-06-29T21:35:09.972Z,53.03
2018-06-29T21:37:48.059Z,53.53
2018-06-29T21:40:19.602Z,53.65
2018-06-29T21:42:48.977Z,53.38
2018-06-29T21:45:20.819Z,53.00
2018-06-29T21:47:51.188Z,53.25
2018-06-29T21:50:20.844Z,53.50
2018-06-29T21:52:50.428Z,53.87
2018-06-29T21:55:21.572Z,53.89
2018-06-29T21:57:51.005Z,54.16
2018-06-29T22:00:20.650Z,54.17
2018-06-29T22:02:49.758Z,54.26
2018-06-29T22:05:19.740Z,54.83
2018-06-29T22:07:49.747Z,54.85
2018-06-29T22:10:20.918Z,55.20
2018-06-29T22:12:49.772Z,54.98
2018-06-29T22:15:23.181Z,55.04
2018-06-29T22:17:51.875Z,55.44
2018-06-29T22:20:21.157Z,55.54
2018-06-29T22:22:49.853Z,56.26
2018-06-29T22:25:19.038Z,55.98
2018-06-29T22:27:48.150Z,55.95
2018-06-29T22:30:17.354Z,56.43
2018-06-29T22:32:46.076Z,56.54
2018-06-29T22:35:14.846Z,56.75
2018-06-29T22:37:43.752Z,57.41
2018-06-29T22:40:12.597Z,57.84
2018-06-29T22:42:41.561Z,57.55
2018-06-29T22:45:10.357Z,57.90
2018-06-29T22:47:39.039Z,58.02
2018-06-29T22:50:07.783Z,58.29
2018-06-29T22:52:36.812Z,58.37
2018-06-29T22:55:05.596Z,59.14
2018-06-29T22:57:34.314Z,58.89
2018-06-29T23:00:03.068Z,58.71
2018-06-29T23:02:31.743Z,58.76
2018-06-29T23:05:00.547Z,58.75
2018-06-29T23:07:29.312Z,58.51
2018-06-29T23:09:58.091Z,58.70
2018-06-29T23:12:26.813Z,58.87
2018-06-29T23:14:55.464Z,59.09
2018-06-29T23:17:24.259Z,59.43
2018-06-29T23:19:52.879Z,59.02
2018-06-29T23:22:21.568Z,59.44
2018-06-29T23:24:50.432Z,59.64
2018-06-29T23:27:19.088Z,59.81
2018-06-29T23:29:47.777Z,60.14
2018-06-29T23:32:16.529Z,60.14
2018-06-29T23:34:45.230Z,60.05
2018-06-29T23:37:13.938Z,60.14
2018-06-29T23:39:42.636Z,60.46
2018-06-29T23:42:11.488Z,60.73
2018-06-29T23:44:40.215Z,60.57
2018-06-29T23:47:08.855Z,61.14
2018-06-29T23:49:37.526Z,60.92
2018-06-29T23:52:06.421Z,61.42
2018-06-29T23:54:35.310Z,61.37
2018-06-29T23:57:04.172Z,61.28
2018-06-29T23:59:32.950Z,61.71
